createdAt,value
2018-05-14T00:00:04.429Z,39.87
2018-05-14T00:02:32.615Z,40.13
2018-05-14T00:05:00.822Z,39.97
2018-05-14T00:07:29.030Z,39.90
2018-05-14T00:09:57.218Z,40.33
2018-05-14T00:12:25.552Z,39.67
2018-05-14T00:14:54.206Z,39.83
2018-05-14T00:17:23.153Z,39.50
2018-05-14T00:19:52.087Z,40.77
2018-05-14T00:22:20.298Z,39.57
2018-05-14T00:24:49.407Z,40.33
2018-05-14T00:27:17.593Z,40.07
2018-05-14T00:29:46.013Z,40.03
2018-05-14T00:32:14.960Z,39.97
2018-05-14T00:34:43.158Z,39.80
2018-05-14T00:37:11.363Z,40.23
2018-05-14T00:39:39.533Z,40.43
2018-05-14T00:42:07.735Z,39.70
2018-05-14T00:44:35.929Z,39.97
2018-05-14T00:47:04.108Z,39.63
2018-05-14T00:49:32.309Z,40.23
2018-05-14T00:52:01.327Z,39.70
2018-05-14T00:54:29.497Z,40.23
2018-05-14T00:56:58.443Z,39.53
2018-05-14T00:59:26.672Z,39.83
2018-05-14T01:01:54.840Z,40.33
2018-05-14T01:04:23.066Z,40.13
2018-05-14T01:06:51.292Z,40.03
2018-05-14T01:09:19.470Z,39.60
2018-05-14T01:11:47.641Z,39.93
2018-05-14T01:14:15.840Z,39.60
2018-05-14T01:16:44.045Z,39.63
2018-05-14T01:19:12.271Z,39.77
2018-05-14T01:21:40.470Z,39.60
2018-05-14T01:24:08.643Z,39.30
2018-05-14T01:26:36.830Z,39.60
2018-05-14T01:29:05.035Z,39.80
2018-05-14T01:31:33.237Z,40.07
2018-05-14T01:34:01.404Z,39.70
2018-05-14T01:36:30.361Z,39.10
2018-05-14T01:38:58.541Z,40.33
2018-05-14T01:41:26.720Z,39.17
2018-05-14T01:43:54.928Z,39.30
2018-05-14T01:46:23.862Z,39.20
2018-05-14T01:48:52.028Z,39.23
2018-05-14T01:51:20.246Z,38.77
2018-05-14T01:53:48.424Z,39.40
2018-05-14T01:56:17.413Z,39.20
2018-05-14T01:58:45.621Z,38.80
2018-05-14T02:01:13.805Z,38.67
2018-05-14T02:03:41.992Z,38.73
2018-05-14T02:06:10.184Z,39.07
2018-05-14T02:08:38.385Z,38.90
2018-05-14T02:11:06.614Z,39.73
2018-05-14T02:16:09.967Z,39.13
2018-05-14T02:18:38.155Z,39.13
2018-05-14T02:21:06.333Z,39.10
2018-05-14T02:23:34.529Z,38.90
2018-05-14T02:26:02.731Z,39.07
2018-05-14T02:28:30.901Z,39.07
2018-05-14T02:31:00.241Z,39.17
2018-05-14T02:33:28.412Z,38.83
2018-05-14T02:35:57.369Z,39.30
2018-05-14T02:38:25.572Z,38.97
2018-05-14T02:40:53.750Z,39.00
2018-05-14T02:43:21.935Z,38.93
2018-05-14T02:45:51.079Z,39.23
2018-05-14T02:48:19.265Z,39.17
2018-05-14T02:50:47.444Z,38.60
2018-05-14T02:53:15.658Z,39.23
2018-05-14T02:55:43.853Z,38.70
2018-05-14T02:58:12.031Z,38.93
2018-05-14T03:00:41.068Z,58.93
2018-05-14T03:03:09.338Z,39.13
2018-05-14T03:05:37.507Z,39.20
2018-05-14T03:08:05.756Z,38.73
2018-05-14T03:10:33.996Z,39.10
2018-05-14T03:13:02.177Z,39.10
2018-05-14T03:15:30.388Z,37.97
2018-05-14T03:17:58.589Z,38.53
2018-05-14T03:20:26.777Z,38.00
2018-05-14T03:22:55.002Z,38.73
2018-05-14T03:25:23.933Z,38.93
2018-05-14T03:27:52.103Z,39.90
2018-05-14T03:30:20.302Z,38.90
2018-05-14T03:32:48.495Z,39.00
2018-05-14T03:35:17.513Z,39.10
2018-05-14T03:37:46.484Z,39.23
2018-05-14T03:40:15.506Z,38.83
2018-05-14T03:42:44.397Z,38.47
2018-05-14T03:45:12.599Z,38.83
2018-05-14T03:47:40.784Z,38.83
2018-05-14T03:50:08.971Z,38.83
2018-05-14T03:52:37.163Z,38.93
2018-05-14T03:55:05.363Z,39.10
2018-05-14T03:57:33.536Z,38.90
2018-05-14T04:00:19.528Z,38.60
2018-05-14T04:03:05.243Z,38.40
2018-05-14T04:05:51.202Z,39.17
2018-05-14T04:08:20.240Z,39.00
2018-05-14T04:10:49.249Z,38.60
2018-05-14T04:13:17.448Z,38.77
2018-05-14T04:15:45.643Z,38.97
2018-05-14T04:18:13.920Z,38.83
2018-05-14T04:20:42.128Z,38.40
2018-05-14T04:23:10.326Z,38.80
2018-05-14T04:25:38.509Z,38.90
2018-05-14T04:28:06.755Z,38.57
2018-05-14T04:30:34.952Z,38.80
2018-05-14T04:33:03.147Z,39.03
2018-05-14T04:35:31.349Z,38.37
2018-05-14T04:37:59.521Z,38.73
2018-05-14T04:40:27.695Z,39.03
2018-05-14T04:42:55.899Z,39.23
2018-05-14T04:45:24.073Z,38.57
2018-05-14T04:47:52.250Z,39.23
2018-05-14T04:50:20.450Z,39.17
2018-05-14T04:52:48.643Z,38.83
2018-05-14T04:55:16.858Z,39.30
2018-05-14T04:57:45.053Z,39.03
2018-05-14T05:00:14.040Z,40.23
2018-05-14T05:02:42.231Z,39.07
2018-05-14T05:05:10.424Z,38.87
2018-05-14T05:07:38.612Z,39.00
2018-05-14T05:10:06.798Z,38.90
2018-05-14T05:12:35.013Z,39.10
2018-05-14T05:15:03.277Z,39.07
2018-05-14T05:17:31.451Z,39.07
2018-05-14T05:19:59.666Z,38.90
2018-05-14T05:22:27.853Z,39.03
2018-05-14T05:24:56.020Z,38.80
2018-05-14T05:27:24.228Z,39.03
2018-05-14T05:29:52.415Z,39.03
2018-05-14T05:32:20.617Z,39.17
2018-05-14T05:34:49.438Z,38.97
2018-05-14T05:37:17.602Z,39.50
2018-05-14T05:39:45.785Z,39.20
2018-05-14T05:42:13.976Z,38.93
2018-05-14T05:44:42.925Z,39.23
2018-05-14T05:47:11.159Z,39.47
2018-05-14T05:49:39.368Z,40.00
2018-05-14T05:52:07.562Z,39.67
2018-05-14T05:54:35.755Z,39.70
2018-05-14T05:57:03.953Z,38.97
2018-05-14T05:59:32.884Z,40.10
2018-05-14T06:02:01.057Z,39.70
2018-05-14T06:04:29.248Z,39.77
2018-05-14T06:06:57.448Z,39.97
2018-05-14T06:09:26.493Z,39.67
2018-05-14T06:11:55.461Z,39.90
2018-05-14T06:14:24.407Z,40.23
2018-05-14T06:16:52.592Z,40.80
2018-05-14T06:19:20.806Z,39.57
2018-05-14T06:21:48.983Z,40.17
2018-05-14T06:24:17.185Z,40.80
2018-05-14T06:26:45.381Z,40.37
2018-05-14T06:29:13.569Z,40.50
2018-05-14T06:31:41.756Z,39.60
2018-05-14T06:34:09.995Z,40.07
2018-05-14T06:36:38.181Z,40.10
2018-05-14T06:39:06.431Z,40.30
2018-05-14T06:41:34.626Z,40.57
2018-05-14T06:44:02.818Z,40.57
2018-05-14T06:46:30.998Z,40.40
2018-05-14T06:48:59.201Z,40.63
2018-05-14T06:51:27.384Z,40.50
2018-05-14T06:53:55.573Z,40.90
2018-05-14T06:56:23.787Z,40.37
2018-05-14T06:58:51.964Z,40.60
2018-05-14T07:01:20.140Z,43.70
2018-05-14T07:03:50.862Z,40.63
2018-05-14T07:06:19.037Z,40.30
2018-05-14T07:08:47.392Z,39.97
2018-05-14T07:11:15.590Z,39.97
2018-05-14T07:13:43.768Z,40.07
2018-05-14T07:16:11.954Z,40.27
2018-05-14T07:18:40.161Z,40.13
2018-05-14T07:21:08.366Z,40.03
2018-05-14T07:23:36.585Z,40.23
2018-05-14T07:26:04.787Z,40.67
2018-05-14T07:28:32.956Z,40.10
2018-05-14T07:31:01.130Z,40.17
2018-05-14T07:33:30.743Z,40.70
2018-05-14T07:35:58.945Z,40.60
2018-05-14T07:38:27.124Z,40.07
2018-05-14T07:40:55.338Z,40.70
2018-05-14T07:43:23.509Z,40.23
2018-05-14T07:45:51.687Z,40.10
2018-05-14T07:48:20.573Z,40.80
2018-05-14T07:53:23.204Z,39.63
2018-05-14T07:55:51.381Z,39.73
2018-05-14T07:58:19.561Z,40.10
2018-05-14T08:00:47.754Z,40.83
2018-05-14T08:03:15.927Z,41.03
2018-05-14T08:05:44.189Z,40.43
2018-05-14T08:08:12.355Z,40.33
2018-05-14T08:10:40.524Z,40.33
2018-05-14T08:13:08.691Z,40.50
2018-05-14T08:15:36.931Z,40.23
2018-05-14T08:18:05.111Z,40.87
2018-05-14T08:20:33.959Z,40.37
2018-05-14T08:23:02.246Z,40.30
2018-05-14T08:25:30.421Z,40.27
2018-05-14T08:27:58.635Z,40.77
2018-05-14T08:30:26.832Z,40.23
2018-05-14T08:32:55.793Z,40.37
2018-05-14T08:35:24.022Z,41.67
2018-05-14T08:37:52.216Z,40.70
2018-05-14T08:40:20.457Z,40.70
2018-05-14T08:42:48.632Z,40.47
2018-05-14T08:45:16.835Z,40.87
2018-05-14T08:47:45.051Z,40.47
2018-05-14T08:50:13.295Z,41.17
2018-05-14T08:52:41.532Z,40.30
2018-05-14T08:55:09.720Z,40.57
2018-05-14T08:57:37.974Z,40.60
2018-05-14T09:00:06.218Z,41.43
2018-05-14T09:02:35.093Z,41.20
2018-05-14T09:05:03.286Z,40.73
2018-05-14T09:07:31.491Z,40.97
2018-05-14T09:09:59.677Z,40.53
2018-05-14T09:12:27.844Z,41.10
2018-05-14T09:14:56.871Z,40.63
2018-05-14T09:17:25.941Z,41.57
2018-05-14T09:19:54.141Z,41.20
2018-05-14T09:22:22.363Z,41.00
2018-05-14T09:24:50.538Z,40.50
2018-05-14T09:27:18.803Z,41.30
2018-05-14T09:29:47.014Z,40.80
2018-05-14T09:32:15.188Z,41.30
2018-05-14T09:34:43.367Z,41.27
2018-05-14T09:37:11.579Z,40.50
2018-05-14T09:39:39.820Z,41.43
2018-05-14T09:42:08.008Z,40.87
2018-05-14T09:44:36.234Z,41.60
2018-05-14T09:47:04.433Z,41.40
2018-05-14T09:49:32.628Z,41.40
2018-05-14T09:52:00.860Z,41.13
2018-05-14T09:54:29.058Z,41.23
2018-05-14T09:56:57.260Z,40.87
2018-05-14T09:59:25.487Z,41.07
2018-05-14T10:01:53.694Z,42.77
2018-05-14T10:04:21.886Z,41.30
2018-05-14T10:06:50.084Z,41.87
2018-05-14T10:09:18.289Z,41.43
2018-05-14T10:11:47.233Z,41.30
2018-05-14T10:14:15.479Z,41.23
2018-05-14T10:16:43.653Z,41.40
2018-05-14T10:19:11.830Z,41.50
2018-05-14T10:21:40.056Z,41.33
2018-05-14T10:24:08.263Z,41.00
2018-05-14T10:26:37.206Z,41.57
2018-05-14T10:29:05.409Z,41.27
2018-05-14T10:31:33.589Z,41.47
2018-05-14T10:34:01.775Z,41.93
2018-05-14T10:36:29.965Z,41.60
2018-05-14T10:38:58.144Z,41.80
2018-05-14T10:41:26.330Z,41.50
2018-05-14T10:43:54.545Z,42.33
2018-05-14T10:46:22.735Z,42.10
2018-05-14T10:48:50.917Z,41.63
2018-05-14T10:51:19.117Z,40.90
2018-05-14T10:53:47.298Z,41.20
2018-05-14T10:56:15.537Z,41.97
2018-05-14T10:58:43.764Z,42.00
2018-05-14T11:01:12.010Z,48.97
2018-05-14T11:03:40.451Z,42.03
2018-05-14T11:06:09.548Z,41.93
2018-05-14T11:08:37.739Z,41.97
2018-05-14T11:11:05.943Z,41.37
2018-05-14T11:13:34.949Z,41.63
2018-05-14T11:16:03.362Z,42.30
2018-05-14T11:18:31.624Z,42.07
2018-05-14T11:20:59.902Z,42.10
2018-05-14T11:23:28.162Z,42.87
2018-05-14T11:25:56.345Z,42.07
2018-05-14T11:28:24.606Z,42.23
2018-05-14T11:30:52.774Z,42.03
2018-05-14T11:33:20.949Z,41.93
2018-05-14T11:35:49.175Z,41.80
2018-05-14T11:38:18.186Z,42.20
2018-05-14T11:40:47.180Z,42.10
2018-05-14T11:43:15.388Z,42.10
2018-05-14T11:45:43.560Z,41.83
2018-05-14T11:48:11.749Z,41.80
2018-05-14T11:50:39.937Z,42.00
2018-05-14T11:53:08.115Z,42.23
2018-05-14T11:55:36.287Z,42.03
2018-05-14T11:58:04.488Z,42.37
2018-05-14T12:00:32.672Z,42.60
2018-05-14T12:03:01.769Z,42.53
2018-05-14T12:05:29.923Z,42.70
2018-05-14T12:07:58.966Z,43.13
2018-05-14T12:10:27.224Z,42.03
2018-05-14T12:12:55.423Z,43.20
2018-05-14T12:15:23.604Z,43.17
2018-05-14T12:17:51.775Z,42.53
2018-05-14T12:20:19.970Z,42.13
2018-05-14T12:22:48.147Z,42.57
2018-05-14T12:25:16.333Z,42.67
2018-05-14T12:27:44.528Z,42.83
2018-05-14T12:30:12.717Z,42.27
2018-05-14T12:32:41.636Z,42.33
2018-05-14T12:35:09.835Z,42.47
2018-05-14T12:37:38.931Z,42.73
2018-05-14T12:40:08.550Z,43.10
2018-05-14T12:42:38.149Z,42.63
2018-05-14T12:45:07.310Z,42.00
2018-05-14T12:47:36.702Z,42.80
2018-05-14T12:50:05.783Z,43.03
2018-05-14T12:52:34.896Z,42.80
2018-05-14T12:55:05.063Z,42.27
2018-05-14T12:57:34.564Z,42.43
2018-05-14T13:00:03.744Z,42.70
2018-05-14T13:02:33.016Z,42.57
2018-05-14T13:05:02.659Z,42.83
2018-05-14T13:07:31.768Z,42.43
2018-05-14T13:10:01.077Z,42.90
2018-05-14T13:12:29.296Z,42.20
2018-05-14T13:14:58.372Z,42.77
2018-05-14T13:17:27.500Z,43.00
2018-05-14T13:19:56.493Z,43.13
2018-05-14T13:22:26.105Z,43.27
2018-05-14T13:24:55.791Z,42.43
2018-05-14T13:27:27.280Z,42.13
2018-05-14T13:29:57.626Z,42.00
2018-05-14T13:32:27.297Z,42.20
2018-05-14T13:34:55.524Z,42.67
2018-05-14T13:37:23.763Z,42.57
2018-05-14T13:39:51.941Z,42.70
2018-05-14T13:42:20.135Z,42.50
2018-05-14T13:44:48.309Z,42.40
2018-05-14T13:47:17.798Z,42.10
2018-05-14T13:49:46.873Z,43.23
2018-05-14T13:52:15.092Z,43.07
2018-05-14T13:54:43.333Z,42.47
2018-05-14T13:57:11.536Z,42.83
2018-05-14T13:59:39.710Z,42.83
2018-05-14T14:02:07.952Z,43.10
2018-05-14T14:04:36.732Z,43.70
2018-05-14T14:07:05.668Z,43.63
2018-05-14T14:09:33.915Z,44.10
2018-05-14T14:12:02.120Z,45.10
2018-05-14T14:14:31.190Z,44.80
2018-05-14T14:16:59.401Z,44.67
2018-05-14T14:19:27.585Z,45.40
2018-05-14T14:21:55.778Z,45.03
2018-05-14T14:24:24.032Z,44.87
2018-05-14T14:26:52.267Z,45.47
2018-05-14T14:29:20.436Z,45.47
2018-05-14T14:31:48.634Z,44.83
2018-05-14T14:34:16.846Z,44.70
2018-05-14T14:36:45.008Z,45.07
2018-05-14T14:39:13.224Z,44.60
2018-05-14T14:41:42.164Z,45.33
2018-05-14T14:44:10.341Z,45.87
2018-05-14T14:46:38.530Z,46.33
2018-05-14T14:49:06.741Z,45.70
2018-05-14T14:51:34.932Z,45.60
2018-05-14T14:54:03.127Z,45.70
2018-05-14T14:56:31.313Z,46.40
2018-05-14T14:59:00.370Z,45.97
2018-05-14T15:01:28.567Z,49.10
2018-05-14T15:03:56.745Z,45.90
2018-05-14T15:06:24.986Z,45.67
2018-05-14T15:08:54.803Z,46.37
2018-05-14T15:11:23.528Z,46.20
2018-05-14T15:13:51.713Z,47.13
2018-05-14T15:16:19.905Z,46.37
2018-05-14T15:18:48.077Z,46.13
2018-05-14T15:21:16.252Z,45.80
2018-05-14T15:23:44.450Z,46.57
2018-05-14T15:26:12.617Z,46.17
2018-05-14T15:28:41.551Z,46.77
2018-05-14T15:31:09.754Z,46.43
2018-05-14T15:33:37.952Z,46.13
2018-05-14T15:36:06.152Z,46.43
2018-05-14T15:38:34.375Z,46.03
2018-05-14T15:41:02.661Z,45.67
2018-05-14T15:43:30.831Z,46.17
2018-05-14T15:45:59.484Z,46.57
2018-05-14T15:48:27.648Z,46.57
2018-05-14T15:50:55.839Z,46.33
2018-05-14T15:53:24.051Z,46.63
2018-05-14T15:55:52.225Z,46.77
2018-05-14T15:58:20.514Z,47.23
2018-05-14T16:00:48.842Z,46.40
2018-05-14T16:03:17.017Z,46.93
2018-05-14T16:05:45.236Z,47.07
2018-05-14T16:08:13.433Z,46.43
2018-05-14T16:10:41.615Z,46.77
2018-05-14T16:13:09.823Z,46.77
2018-05-14T16:15:38.045Z,47.03
2018-05-14T16:18:07.018Z,46.93
2018-05-14T16:20:35.236Z,46.67
2018-05-14T16:23:03.443Z,46.83
2018-05-14T16:25:32.856Z,47.57
2018-05-14T16:28:01.062Z,47.30
2018-05-14T16:30:29.271Z,46.37
2018-05-14T16:32:57.458Z,47.47
2018-05-14T16:35:25.679Z,46.97
2018-05-14T16:37:53.875Z,47.57
2018-05-14T16:40:22.059Z,46.67
2018-05-14T16:42:50.245Z,47.10
2018-05-14T16:45:18.406Z,47.70
2018-05-14T16:47:46.577Z,46.97
2018-05-14T16:50:14.812Z,46.73
2018-05-14T16:52:42.971Z,46.33
2018-05-14T16:55:11.206Z,47.27
2018-05-14T16:57:39.522Z,47.50
2018-05-14T17:00:07.818Z,47.20
2018-05-14T17:02:36.759Z,46.80
2018-05-14T17:05:05.006Z,46.93
2018-05-14T17:07:33.952Z,47.43
2018-05-14T17:10:02.134Z,46.53
2018-05-14T17:12:31.057Z,47.03
2018-05-14T17:14:59.243Z,47.20
2018-05-14T17:17:27.600Z,47.67
2018-05-14T17:19:56.496Z,46.87
2018-05-14T17:22:24.685Z,46.83
2018-05-14T17:24:53.638Z,46.80
2018-05-14T17:27:21.861Z,46.40
2018-05-14T17:29:50.626Z,46.90
2018-05-14T17:32:19.725Z,47.20
2018-05-14T17:34:47.938Z,47.27
2018-05-14T17:37:16.115Z,46.33
2018-05-14T17:39:45.168Z,46.60
2018-05-14T17:42:13.381Z,47.87
2018-05-14T17:44:41.576Z,49.23
2018-05-14T17:47:09.760Z,46.83
2018-05-14T17:49:37.961Z,47.67
2018-05-14T17:52:06.181Z,46.87
2018-05-14T17:54:34.402Z,48.03
2018-05-14T17:57:03.363Z,48.53
2018-05-14T17:59:31.616Z,48.13
2018-05-14T18:01:59.781Z,47.33
2018-05-14T18:04:29.335Z,46.87
2018-05-14T18:06:58.224Z,47.47
2018-05-14T18:09:27.215Z,47.60
2018-05-14T18:11:56.359Z,47.30
2018-05-14T18:14:26.032Z,48.50
2018-05-14T18:16:55.988Z,46.67
2018-05-14T18:19:25.927Z,47.10
2018-05-14T18:22:00.430Z,46.97
2018-05-14T18:24:29.752Z,48.53
2018-05-14T18:26:58.724Z,47.97
2018-05-14T18:29:32.085Z,47.43
2018-05-14T18:32:05.784Z,47.17
2018-05-14T18:34:40.065Z,47.27
2018-05-14T18:37:09.520Z,46.90
2018-05-14T18:39:38.808Z,48.30
2018-05-14T18:42:08.841Z,47.00
2018-05-14T18:44:37.906Z,47.57
2018-05-14T18:47:06.820Z,47.23
2018-05-14T18:49:35.155Z,48.70
2018-05-14T18:52:03.376Z,48.30
2018-05-14T18:54:31.593Z,49.23
2018-05-14T18:56:59.807Z,48.17
2018-05-14T18:59:27.977Z,48.20
2018-05-14T19:01:56.176Z,49.30
2018-05-14T19:04:24.377Z,48.30
2018-05-14T19:06:53.312Z,47.20
2018-05-14T19:09:21.533Z,47.50
2018-05-14T19:11:52.547Z,46.53
2018-05-14T19:14:20.787Z,46.57
2018-05-14T19:16:54.484Z,44.97
2018-05-14T19:19:22.690Z,44.63
2018-05-14T19:21:50.872Z,45.30
2018-05-14T19:24:19.073Z,44.80
2018-05-14T19:26:47.252Z,45.10
2018-05-14T19:29:20.914Z,44.33
2018-05-14T19:31:49.054Z,44.97
2018-05-14T19:34:22.718Z,46.10
2018-05-14T19:36:50.948Z,44.43
2018-05-14T19:39:24.668Z,45.43
2018-05-14T19:41:52.849Z,45.07
2018-05-14T19:44:21.025Z,43.73
2018-05-14T19:46:49.286Z,43.07
2018-05-14T19:49:17.481Z,44.87
2018-05-14T19:51:45.662Z,44.50
2018-05-14T19:54:13.893Z,44.30
2018-05-14T19:56:42.088Z,43.87
2018-05-14T19:59:10.273Z,44.93
2018-05-14T20:01:38.480Z,43.73
2018-05-14T20:04:06.726Z,44.60
2018-05-14T20:06:34.934Z,43.80
2018-05-14T20:09:03.152Z,44.50
2018-05-14T20:11:31.365Z,43.97
2018-05-14T20:13:59.549Z,45.17
2018-05-14T20:16:27.772Z,44.90
2018-05-14T20:18:56.246Z,44.00
2018-05-14T20:21:24.418Z,45.27
2018-05-14T20:23:52.629Z,43.77
2018-05-14T20:26:20.818Z,43.90
2018-05-14T20:28:49.775Z,44.13
2018-05-14T20:31:18.074Z,43.73
2018-05-14T20:33:46.264Z,43.67
2018-05-14T20:36:14.510Z,42.73
2018-05-14T20:38:42.698Z,43.20
2018-05-14T20:41:10.912Z,44.13
2018-05-14T20:43:39.145Z,43.63
2018-05-14T20:46:07.376Z,44.10
2018-05-14T20:48:35.578Z,43.90
2018-05-14T20:51:03.816Z,44.37
2018-05-14T20:53:32.019Z,43.63
2018-05-14T20:56:00.221Z,43.73
2018-05-14T20:58:28.397Z,44.17
2018-05-14T21:00:56.643Z,43.30
2018-05-14T21:03:24.851Z,44.20
2018-05-14T21:05:53.330Z,43.00
2018-05-14T21:08:22.442Z,42.77
2018-05-14T21:10:52.530Z,43.17
2018-05-14T21:13:22.692Z,42.97
2018-05-14T21:15:52.084Z,43.10
2018-05-14T21:18:21.303Z,42.63
2018-05-14T21:20:50.743Z,42.80
2018-05-14T21:23:19.046Z,42.40
2018-05-14T21:25:47.227Z,43.17
2018-05-14T21:28:15.438Z,43.57
2018-05-14T21:30:44.571Z,43.03
2018-05-14T21:33:12.757Z,42.87
2018-05-14T21:35:41.866Z,42.87
2018-05-14T21:38:10.049Z,42.57
2018-05-14T21:40:38.243Z,43.03
2018-05-14T21:43:07.253Z,42.87
2018-05-14T21:45:35.510Z,42.93
2018-05-14T21:48:03.723Z,42.73
2018-05-14T21:50:32.409Z,42.97
2018-05-14T21:53:01.386Z,43.03
2018-05-14T21:55:29.598Z,42.60
2018-05-14T21:57:57.808Z,42.70
2018-05-14T22:00:25.999Z,42.73
2018-05-14T22:02:54.192Z,43.10
2018-05-14T22:05:22.394Z,43.00
2018-05-14T22:07:50.729Z,42.23
2018-05-14T22:10:18.921Z,42.40
2018-05-14T22:12:48.690Z,42.13
2018-05-14T22:15:16.922Z,41.50
2018-05-14T22:17:45.137Z,42.23
2018-05-14T22:20:13.353Z,42.83
2018-05-14T22:22:42.294Z,42.63
2018-05-14T22:25:10.567Z,41.90
2018-05-14T22:27:38.764Z,42.43
2018-05-14T22:30:07.011Z,41.90
2018-05-14T22:32:35.448Z,42.13
2018-05-14T22:35:03.696Z,41.57
2018-05-14T22:37:31.883Z,41.50
2018-05-14T22:40:00.098Z,41.83
2018-05-14T22:42:28.297Z,41.43
2018-05-14T22:44:56.762Z,41.30
2018-05-14T22:47:24.937Z,40.97
2018-05-14T22:49:53.146Z,41.57
2018-05-14T22:52:21.342Z,41.13
2018-05-14T22:54:49.529Z,41.17
2018-05-14T22:57:18.516Z,40.93
2018-05-14T22:59:46.717Z,41.63
2018-05-14T23:02:15.902Z,42.23
2018-05-14T23:04:44.161Z,40.60
2018-05-14T23:07:12.413Z,41.47
2018-05-14T23:09:41.366Z,41.67
2018-05-14T23:12:09.536Z,41.93
2018-05-14T23:14:37.741Z,40.93
2018-05-14T23:17:05.938Z,40.63
2018-05-14T23:19:52.041Z,41.10
2018-05-14T23:22:20.359Z,41.77
2018-05-14T23:24:48.711Z,41.47
2018-05-14T23:27:17.690Z,40.40
2018-05-14T23:29:45.877Z,41.00
2018-05-14T23:32:14.058Z,40.77
2018-05-14T23:34:42.254Z,41.57
2018-05-14T23:37:10.458Z,41.50
2018-05-14T23:39:38.651Z,42.67
2018-05-14T23:42:09.338Z,40.57
2018-05-14T23:44:37.565Z,40.43
2018-05-14T23:47:06.499Z,40.80
2018-05-14T23:49:34.713Z,41.90
2018-05-14T23:52:03.495Z,41.30
2018-05-14T23:54:31.765Z,41.00
2018-05-14T23:56:59.958Z,41.07
2018-05-14T23:59:28.166Z,41.90
